El-djazair II — 7TBR — position and weather

sailwx.info

Track history (hours):
 
Tides and Currents Weather Stations Pressure Air Temp Water Temp Dewpoint Dewpoint Depression Visibility Wind Speed Wind Dir Waves Ship Positions

El-djazair II

Last reported at 2017-Jun-24 08:45 UTC. Time now 2017-Jun-25 13:45 UTC.
Position N 37°35' E 007°05'.

Length 146 m; draft 6.3 m.

Type: Passenger vessel. MMSI: 605026190.

Date/timePositionNaut miles runAvg speedWind from/ knotsBaromVisibWave heightAir tempDewpointWater temp
2017-Jun-24 08:45N 37°35' E 007°05'2523.6
2017-Jun-24 07:42N 37°59' E 007°11'4123.8
2017-Jun-24 05:59N 38°39' E 007°21'10523.3
2017-Jun-24 01:29N 40°22' E 007°49'14123.1
2017-Jun-23 19:23N 42°40' E 008°28'922.5
2017-Jun-23 19:00N 42°48' E 008°31'1122.5
2017-Jun-23 18:30N 42°59' E 008°34'1322.7
2017-Jun-23 17:55N 43°12' E 008°38'922.9
2017-Jun-23 17:30N 43°22' E 008°41'1223.1
2017-Jun-23 17:00N 43°33' E 008°44'1223.1
2017-Jun-23 16:31N 43°44' E 008°47'1223.1
2017-Jun-23 16:00N 43°55' E 008°51'1223.1
2017-Jun-23 15:31N 44°07' E 008°54'1122.9
2017-Jun-23 15:01N 44°18' E 008°58'7 6.7
2017-Jun-23 13:57N 44°25' E 008°55'0 0.0
2017-Jun-23 13:27N 44°25' E 008°55'0 0.0
2017-Jun-23 12:57N 44°25' E 008°55'0 0.0
2017-Jun-23 12:27N 44°25' E 008°55'0 0.0
2017-Jun-23 11:57N 44°25' E 008°55'0 0.0
2017-Jun-23 11:27N 44°25' E 008°55'0 0.0
2017-Jun-23 10:57N 44°25' E 008°55'0 0.0
2017-Jun-23 10:30N 44°25' E 008°55'0 0.0
2017-Jun-23 10:00N 44°25' E 008°55'0 0.0
2017-Jun-23 09:30N 44°25' E 008°55'0 0.4
2017-Jun-23 09:00N 44°25' E 008°55'3 6.1
2017-Jun-23 08:30N 44°22' E 008°58'917.8
2017-Jun-23 08:01N 44°13' E 008°55'1223.5
2017-Jun-23 07:30N 44°03' E 008°48'1723.3
2017-Jun-23 06:46N 43°46' E 008°42'923.5
2017-Jun-23 06:23N 43°37' E 008°40'923.5
2017-Jun-23 06:00N 43°28' E 008°38'3223.7
2017-Jun-23 04:40N 42°57' E 008°29'424.0
2017-Jun-23 04:31N 42°54' E 008°28'1424.0
2017-Jun-23 03:55N 42°40' E 008°25'1024.2
2017-Jun-23 03:31N 42°30' E 008°22'1224.2
2017-Jun-23 03:00N 42°18' E 008°19'1224.0
2017-Jun-23 02:30N 42°06' E 008°16'2523.9
2017-Jun-23 01:26N 41°41' E 008°09'167 3.6
2017-Jun-21 03:45N 39°17' E 006°19'7822.9
2017-Jun-21 00:20N 40°34' E 005°60'922.9
2017-Jun-20 23:57N 40°43' E 005°58'3722.9
2017-Jun-20 22:19N 41°20' E 005°48'1023.0
2017-Jun-20 21:52N 41°30' E 005°45'823.0
2017-Jun-20 21:30N 41°38' E 005°43'1523.2
2017-Jun-20 20:52N 41°53' E 005°39'823.3
2017-Jun-20 20:30N 42°01' E 005°37'1123.0
2017-Jun-20 20:01N 42°12' E 005°34'1223.2
2017-Jun-20 19:30N 42°23' E 005°31'1223.1
2017-Jun-20 19:00N 42°35' E 005°28'1222.8
2017-Jun-20 18:30N 42°46' E 005°25'1422.9
2017-Jun-20 17:52N 43°00' E 005°21'18 6.0
2017-Jun-20 14:50N 43°18' E 005°22'0 0.0
2017-Jun-20 14:29N 43°18' E 005°22'0 0.0
2017-Jun-20 12:56N 43°18' E 005°22'0 0.0
2017-Jun-20 12:30N 43°18' E 005°22'2 4.8
2017-Jun-20 12:01N 43°17' E 005°19'1019.7
2017-Jun-20 11:30N 43°10' E 005°09'13 4.5
2017-Jun-20 08:40N 43°19' E 005°21'0 0.0
2017-Jun-20 08:28N 43°19' E 005°21'0 0.0
2017-Jun-20 07:52N 43°19' E 005°21'  
2017-Jun-15 18:54N 43°19' E 005°21'10 8.9
2017-Jun-15 17:47N 43°10' E 005°19'621.7
2017-Jun-15 17:30N 43°04' E 005°23'1121.6
2017-Jun-15 16:58N 42°54' E 005°29'1521.8
2017-Jun-15 16:17N 42°40' E 005°38'621.7
2017-Jun-15 16:00N 42°35' E 005°42'1121.6
2017-Jun-15 15:30N 42°25' E 005°48'1321.5
2017-Jun-15 14:55N 42°14' E 005°56'2021.6
2017-Jun-15 14:00N 41°56' E 006°08'1121.7
2017-Jun-15 13:30N 41°46' E 006°14'1121.9
2017-Jun-15 12:59N 41°36' E 006°21'1121.7
2017-Jun-15 12:29N 41°27' E 006°28'1221.7
2017-Jun-15 11:56N 41°16' E 006°34'1122.0
2017-Jun-15 11:26N 41°06' E 006°40'816.7
2017-Jun-15 10:57N 40°59' E 006°45'714.4
2017-Jun-15 10:28N 40°52' E 006°49'914.4
2017-Jun-15 09:49N 40°44' E 006°55'514.2
2017-Jun-15 09:27N 40°39' E 006°58'613.8
2017-Jun-15 09:00N 40°34' E 007°01'1121.5
2017-Jun-15 08:30N 40°24' E 007°07'1221.9
2017-Jun-15 07:58N 40°14' E 007°14'1021.5
2017-Jun-15 07:30N 40°05' E 007°20'1121.6
2017-Jun-15 07:00N 39°55' E 007°26'1121.5
2017-Jun-15 06:29N 39°45' E 007°33'1121.5
2017-Jun-15 05:59N 39°35' E 007°39'1121.6
2017-Jun-15 05:29N 39°25' E 007°45'1221.7
2017-Jun-15 04:55N 39°14' E 007°52'1021.6
2017-Jun-15 04:27N 39°05' E 007°57'1022.0
2017-Jun-15 04:00N 38°57' E 008°04'1122.0
2017-Jun-15 03:29N 38°48' E 008°14'1222.0
2017-Jun-15 02:58N 38°40' E 008°23'1322.4
2017-Jun-15 02:24N 38°30' E 008°34'922.2
2017-Jun-15 02:00N 38°24' E 008°42'1222.1
2017-Jun-15 01:27N 38°15' E 008°52'1021.8
2017-Jun-15 01:00N 38°07' E 009°01'1121.7
2017-Jun-15 00:29N 37°59' E 009°10'1121.5
2017-Jun-15 00:00N 37°51' E 009°19'1121.4
2017-Jun-14 23:30N 37°43' E 009°27'714.3
2017-Jun-14 23:00N 37°38' E 009°33'713.4
2017-Jun-14 22:30N 37°33' E 009°39'714.1
2017-Jun-14 22:00N 37°28' E 009°45'714.3
2017-Jun-14 21:30N 37°23' E 009°52'612.7
2017-Jun-14 21:00N 37°17' E 009°55'5 1.7
2017-Jun-14 18:13N 37°15' E 009°50'310.2
2017-Jun-14 17:57N 37°12' E 009°50'  
Track history (hours):
 
Tides and Currents Weather Stations Pressure Air Temp Water Temp Dewpoint Dewpoint Depression Visibility Wind Speed Wind Dir Waves Ship Positions

El-djazair II

Last reported at 2017-Jun-24 08:45 UTC. Time now 2017-Jun-25 13:45 UTC.
Position N 37°35' E 007°05'.

Length 146 m; draft 6.3 m.

Type: Passenger vessel. MMSI: 605026190.

Date/timePositionNaut miles runAvg speedWind from/ knotsBaromVisibWave heightAir tempDewpointWater temp
2017-Jun-24 08:45N 37°35' E 007°05'2523.6
2017-Jun-24 07:42N 37°59' E 007°11'4123.8
2017-Jun-24 05:59N 38°39' E 007°21'10523.3
2017-Jun-24 01:29N 40°22' E 007°49'14123.1
2017-Jun-23 19:23N 42°40' E 008°28'922.5
2017-Jun-23 19:00N 42°48' E 008°31'1122.5
2017-Jun-23 18:30N 42°59' E 008°34'1322.7
2017-Jun-23 17:55N 43°12' E 008°38'922.9
2017-Jun-23 17:30N 43°22' E 008°41'1223.1
2017-Jun-23 17:00N 43°33' E 008°44'1223.1
2017-Jun-23 16:31N 43°44' E 008°47'1223.1
2017-Jun-23 16:00N 43°55' E 008°51'1223.1
2017-Jun-23 15:31N 44°07' E 008°54'1122.9
2017-Jun-23 15:01N 44°18' E 008°58'7 6.7
2017-Jun-23 13:57N 44°25' E 008°55'0 0.0
2017-Jun-23 13:27N 44°25' E 008°55'0 0.0
2017-Jun-23 12:57N 44°25' E 008°55'0 0.0
2017-Jun-23 12:27N 44°25' E 008°55'0 0.0
2017-Jun-23 11:57N 44°25' E 008°55'0 0.0
2017-Jun-23 11:27N 44°25' E 008°55'0 0.0
2017-Jun-23 10:57N 44°25' E 008°55'0 0.0
2017-Jun-23 10:30N 44°25' E 008°55'0 0.0
2017-Jun-23 10:00N 44°25' E 008°55'0 0.0
2017-Jun-23 09:30N 44°25' E 008°55'0 0.4
2017-Jun-23 09:00N 44°25' E 008°55'3 6.1
2017-Jun-23 08:30N 44°22' E 008°58'917.8
2017-Jun-23 08:01N 44°13' E 008°55'1223.5
2017-Jun-23 07:30N 44°03' E 008°48'1723.3
2017-Jun-23 06:46N 43°46' E 008°42'923.5
2017-Jun-23 06:23N 43°37' E 008°40'923.5
2017-Jun-23 06:00N 43°28' E 008°38'3223.7
2017-Jun-23 04:40N 42°57' E 008°29'424.0
2017-Jun-23 04:31N 42°54' E 008°28'1424.0
2017-Jun-23 03:55N 42°40' E 008°25'1024.2
2017-Jun-23 03:31N 42°30' E 008°22'1224.2
2017-Jun-23 03:00N 42°18' E 008°19'1224.0
2017-Jun-23 02:30N 42°06' E 008°16'2523.9
2017-Jun-23 01:26N 41°41' E 008°09'167 3.6
2017-Jun-21 03:45N 39°17' E 006°19'7822.9
2017-Jun-21 00:20N 40°34' E 005°60'922.9
2017-Jun-20 23:57N 40°43' E 005°58'3722.9
2017-Jun-20 22:19N 41°20' E 005°48'1023.0
2017-Jun-20 21:52N 41°30' E 005°45'823.0
2017-Jun-20 21:30N 41°38' E 005°43'1523.2
2017-Jun-20 20:52N 41°53' E 005°39'823.3
2017-Jun-20 20:30N 42°01' E 005°37'1123.0
2017-Jun-20 20:01N 42°12' E 005°34'1223.2
2017-Jun-20 19:30N 42°23' E 005°31'1223.1
2017-Jun-20 19:00N 42°35' E 005°28'1222.8
2017-Jun-20 18:30N 42°46' E 005°25'1422.9
2017-Jun-20 17:52N 43°00' E 005°21'18 6.0
2017-Jun-20 14:50N 43°18' E 005°22'0 0.0
2017-Jun-20 14:29N 43°18' E 005°22'0 0.0
2017-Jun-20 12:56N 43°18' E 005°22'0 0.0
2017-Jun-20 12:30N 43°18' E 005°22'2 4.8
2017-Jun-20 12:01N 43°17' E 005°19'1019.7
2017-Jun-20 11:30N 43°10' E 005°09'13 4.5
2017-Jun-20 08:40N 43°19' E 005°21'0 0.0
2017-Jun-20 08:28N 43°19' E 005°21'0 0.0
2017-Jun-20 07:52N 43°19' E 005°21'  
2017-Jun-15 18:54N 43°19' E 005°21'10 8.9
2017-Jun-15 17:47N 43°10' E 005°19'621.7
2017-Jun-15 17:30N 43°04' E 005°23'1121.6
2017-Jun-15 16:58N 42°54' E 005°29'1521.8
2017-Jun-15 16:17N 42°40' E 005°38'621.7
2017-Jun-15 16:00N 42°35' E 005°42'1121.6
2017-Jun-15 15:30N 42°25' E 005°48'1321.5
2017-Jun-15 14:55N 42°14' E 005°56'2021.6
2017-Jun-15 14:00N 41°56' E 006°08'1121.7
2017-Jun-15 13:30N 41°46' E 006°14'1121.9
2017-Jun-15 12:59N 41°36' E 006°21'1121.7
2017-Jun-15 12:29N 41°27' E 006°28'1221.7
2017-Jun-15 11:56N 41°16' E 006°34'1122.0
2017-Jun-15 11:26N 41°06' E 006°40'816.7
2017-Jun-15 10:57N 40°59' E 006°45'714.4
2017-Jun-15 10:28N 40°52' E 006°49'914.4
2017-Jun-15 09:49N 40°44' E 006°55'514.2
2017-Jun-15 09:27N 40°39' E 006°58'613.8
2017-Jun-15 09:00N 40°34' E 007°01'1121.5
2017-Jun-15 08:30N 40°24' E 007°07'1221.9
2017-Jun-15 07:58N 40°14' E 007°14'1021.5
2017-Jun-15 07:30N 40°05' E 007°20'1121.6
2017-Jun-15 07:00N 39°55' E 007°26'1121.5
2017-Jun-15 06:29N 39°45' E 007°33'1121.5
2017-Jun-15 05:59N 39°35' E 007°39'1121.6
2017-Jun-15 05:29N 39°25' E 007°45'1221.7
2017-Jun-15 04:55N 39°14' E 007°52'1021.6
2017-Jun-15 04:27N 39°05' E 007°57'1022.0
2017-Jun-15 04:00N 38°57' E 008°04'1122.0
2017-Jun-15 03:29N 38°48' E 008°14'1222.0
2017-Jun-15 02:58N 38°40' E 008°23'1322.4
2017-Jun-15 02:24N 38°30' E 008°34'922.2
2017-Jun-15 02:00N 38°24' E 008°42'1222.1
2017-Jun-15 01:27N 38°15' E 008°52'1021.8
2017-Jun-15 01:00N 38°07' E 009°01'1121.7
2017-Jun-15 00:29N 37°59' E 009°10'1121.5
2017-Jun-15 00:00N 37°51' E 009°19'1121.4
2017-Jun-14 23:30N 37°43' E 009°27'714.3
2017-Jun-14 23:00N 37°38' E 009°33'713.4
2017-Jun-14 22:30N 37°33' E 009°39'714.1
2017-Jun-14 22:00N 37°28' E 009°45'714.3
2017-Jun-14 21:30N 37°23' E 009°52'612.7
2017-Jun-14 21:00N 37°17' E 009°55'5 1.7
2017-Jun-14 18:13N 37°15' E 009°50'310.2
2017-Jun-14 17:57N 37°12' E 009°50'  

Dump ship's entire track history